createdAt,value
2023-04-15T00:02:18.461Z,11.50
2023-04-15T00:04:47.077Z,11.50
2023-04-15T00:07:16.350Z,11.60
2023-04-15T00:09:46.175Z,11.60
2023-04-15T00:12:14.373Z,11.60
2023-04-15T00:14:45.097Z,11.60
2023-04-15T00:17:13.307Z,11.70
2023-04-15T00:19:41.907Z,11.50
2023-04-15T00:22:09.893Z,11.60
2023-04-15T00:24:38.096Z,11.50
2023-04-15T00:27:07.786Z,11.40
2023-04-15T00:29:36.183Z,11.40
2023-04-15T00:32:04.430Z,11.30
2023-04-15T00:34:32.701Z,11.20
2023-04-15T00:37:00.805Z,11.10
2023-04-15T00:39:32.050Z,11.00
2023-04-15T00:42:00.123Z,11.00
2023-04-15T00:44:29.624Z,11.00
2023-04-15T00:46:59.467Z,11.00
2023-04-15T00:49:28.987Z,11.00
2023-04-15T00:51:57.325Z,10.90
2023-04-15T00:54:25.618Z,11.00
2023-04-15T00:56:53.726Z,10.90
2023-04-15T00:59:22.853Z,11.00
2023-04-15T01:01:52.987Z,10.90
2023-04-15T01:04:21.724Z,10.90
2023-04-15T01:06:50.016Z,10.90
2023-04-15T01:09:18.183Z,10.90
2023-04-15T01:11:46.507Z,10.90
2023-04-15T01:14:15.419Z,11.00
2023-04-15T01:16:45.416Z,10.90
2023-04-15T01:19:18.050Z,10.90
2023-04-15T01:21:47.070Z,10.90
2023-04-15T01:24:19.496Z,10.80
2023-04-15T01:26:52.718Z,10.70
2023-04-15T01:29:20.868Z,10.50
2023-04-15T01:31:53.800Z,10.50
2023-04-15T01:34:22.428Z,10.50
2023-04-15T01:36:50.680Z,10.40
2023-04-15T01:39:19.373Z,10.40
2023-04-15T01:41:49.207Z,10.30
2023-04-15T01:44:17.813Z,10.30
2023-04-15T01:46:45.941Z,10.30
2023-04-15T01:49:14.128Z,10.20
2023-04-15T01:51:44.612Z,10.10
2023-04-15T01:54:12.822Z,10.30
2023-04-15T01:56:41.079Z,10.20
2023-04-15T01:59:10.910Z,10.20
2023-04-15T02:01:39.086Z,10.20
2023-04-15T02:04:08.289Z,10.10
2023-04-15T02:06:36.556Z,10.10
2023-04-15T02:09:04.967Z,10.10
2023-04-15T02:11:33.173Z,10.00
2023-04-15T02:14:01.380Z,10.00
2023-04-15T02:16:33.566Z,10.10
2023-04-15T02:19:02.277Z,9.90
2023-04-15T02:21:30.889Z,10.00
2023-04-15T02:24:02.338Z,10.00
2023-04-15T02:26:32.754Z,9.70
2023-04-15T02:29:01.307Z,9.80
2023-04-15T02:31:34.101Z,9.80
2023-04-15T02:34:04.442Z,9.80
2023-04-15T02:36:33.153Z,9.70
2023-04-15T02:39:01.581Z,9.70
2023-04-15T02:41:30.940Z,9.70
2023-04-15T02:43:58.975Z,9.60
2023-04-15T02:46:27.561Z,9.70
2023-04-15T02:48:57.361Z,9.60
2023-04-15T02:51:27.114Z,9.60
2023-04-15T02:53:55.396Z,9.50
2023-04-15T02:56:23.725Z,9.50
2023-04-15T02:58:56.446Z,9.50
2023-04-15T03:01:24.593Z,9.50
2023-04-15T03:03:52.915Z,9.50
2023-04-15T03:06:22.456Z,9.40
2023-04-15T03:08:50.529Z,9.20
2023-04-15T03:11:18.851Z,9.20
2023-04-15T03:13:47.453Z,9.10
2023-04-15T03:16:16.348Z,9.00
2023-04-15T03:18:44.577Z,8.90
2023-04-15T03:21:14.085Z,9.00
2023-04-15T03:23:44.366Z,9.00
2023-04-15T03:26:24.689Z,8.90
2023-04-15T03:28:53.249Z,9.00
2023-04-15T03:31:21.802Z,8.90
2023-04-15T03:33:52.691Z,8.90
2023-04-15T03:36:20.921Z,8.80
2023-04-15T03:38:50.586Z,8.80
2023-04-15T03:41:18.941Z,8.70
2023-04-15T03:43:47.049Z,8.70
2023-04-15T03:46:15.223Z,8.70
2023-04-15T03:48:43.337Z,8.70
2023-04-15T03:51:11.748Z,8.70
2023-04-15T03:53:39.892Z,8.40
2023-04-15T03:56:09.400Z,8.40
2023-04-15T03:58:37.529Z,8.40
2023-04-15T04:01:06.210Z,8.50
2023-04-15T04:03:34.653Z,8.20
2023-04-15T04:06:03.774Z,8.30
2023-04-15T04:08:31.898Z,8.20
2023-04-15T04:10:59.928Z,8.30
2023-04-15T04:13:29.370Z,8.10
2023-04-15T04:15:58.013Z,8.20
2023-04-15T04:18:26.155Z,8.10
2023-04-15T04:20:54.311Z,8.10
2023-04-15T04:23:22.522Z,8.10
2023-04-15T04:25:51.079Z,8.10
2023-04-15T04:28:19.241Z,8.10
2023-04-15T04:30:49.054Z,8.00
2023-04-15T04:33:17.160Z,8.00
2023-04-15T04:35:45.394Z,8.00
2023-04-15T04:38:13.537Z,7.90
2023-04-15T04:40:42.313Z,8.00
2023-04-15T04:43:10.660Z,8.00
2023-04-15T04:45:39.246Z,8.00
2023-04-15T04:48:10.535Z,8.00
2023-04-15T04:50:38.680Z,8.00
2023-04-15T04:53:06.694Z,8.00
2023-04-15T04:55:36.980Z,8.00
2023-04-15T04:58:05.129Z,8.00
2023-04-15T05:00:33.722Z,8.10
2023-04-15T05:03:01.928Z,8.10
2023-04-15T05:05:31.720Z,8.10
2023-04-15T05:08:01.531Z,8.10
2023-04-15T05:10:32.365Z,8.00
2023-04-15T05:13:00.447Z,8.10
2023-04-15T05:15:28.878Z,8.20
2023-04-15T05:17:57.013Z,8.10
2023-04-15T05:20:26.712Z,8.10
2023-04-15T05:22:56.731Z,8.10
2023-04-15T05:25:25.478Z,8.10
2023-04-15T05:27:53.611Z,8.20
2023-04-15T05:30:23.544Z,8.10
2023-04-15T05:32:51.909Z,8.10
2023-04-15T05:35:20.221Z,8.10
2023-04-15T05:37:48.458Z,8.00
2023-04-15T05:40:18.891Z,8.20
2023-04-15T05:42:47.001Z,8.20
2023-04-15T05:45:15.148Z,8.20
2023-04-15T05:47:48.858Z,8.20
2023-04-15T05:50:17.221Z,8.30
2023-04-15T05:52:45.986Z,8.30
2023-04-15T05:55:14.607Z,8.30
2023-04-15T05:57:44.222Z,8.30
2023-04-15T06:00:15.636Z,8.40
2023-04-15T06:02:44.063Z,8.40
2023-04-15T06:05:12.635Z,8.50
2023-04-15T06:07:40.901Z,8.60
2023-04-15T06:10:10.215Z,8.60
2023-04-15T06:12:38.427Z,8.60
2023-04-15T06:15:10.506Z,8.70
2023-04-15T06:17:38.618Z,8.70
2023-04-15T06:20:08.646Z,8.80
2023-04-15T06:22:39.157Z,8.80
2023-04-15T06:25:12.414Z,8.90
2023-04-15T06:27:40.655Z,8.90
2023-04-15T06:30:12.413Z,8.90
2023-04-15T06:32:40.664Z,9.00
2023-04-15T06:35:09.479Z,9.00
2023-04-15T06:37:37.760Z,9.10
2023-04-15T06:40:07.539Z,9.30
2023-04-15T06:42:36.818Z,9.00
2023-04-15T06:45:06.858Z,9.30
2023-04-15T06:47:36.982Z,9.20
2023-04-15T06:50:05.844Z,9.30
2023-04-15T06:52:37.752Z,9.30
2023-04-15T06:55:07.123Z,9.40
2023-04-15T06:57:35.704Z,9.50
2023-04-15T07:00:05.902Z,9.50
2023-04-15T07:02:35.741Z,9.40
2023-04-15T07:05:05.033Z,9.50
2023-04-15T07:07:33.222Z,9.60
2023-04-15T07:10:02.280Z,9.70
2023-04-15T07:12:30.640Z,9.70
2023-04-15T07:14:58.821Z,9.90
2023-04-15T07:17:28.962Z,9.90
2023-04-15T07:20:01.090Z,10.10
2023-04-15T07:22:29.174Z,10.10
2023-04-15T07:24:59.180Z,10.20
2023-04-15T07:27:30.157Z,10.30
2023-04-15T07:30:01.499Z,10.50
2023-04-15T07:32:29.851Z,10.50
2023-04-15T07:35:11.842Z,10.60
2023-04-15T07:37:45.547Z,10.60
2023-04-15T07:40:14.761Z,10.60
2023-04-15T07:42:55.801Z,10.70
2023-04-15T07:45:26.523Z,10.80
2023-04-15T07:47:56.452Z,10.80
2023-04-15T07:50:26.225Z,10.80
2023-04-15T07:52:54.933Z,10.90
2023-04-15T07:55:23.133Z,10.80
2023-04-15T07:57:52.714Z,10.90
2023-04-15T08:00:21.092Z,10.90
2023-04-15T08:02:50.055Z,11.00
2023-04-15T08:05:18.404Z,11.00
2023-04-15T08:07:48.601Z,11.00
2023-04-15T08:10:16.769Z,11.10
2023-04-15T08:12:49.175Z,11.10
2023-04-15T08:15:17.763Z,11.20
2023-04-15T08:17:45.981Z,11.40
2023-04-15T08:20:14.504Z,11.50
2023-04-15T08:22:51.986Z,11.60
2023-04-15T08:25:23.338Z,11.60
2023-04-15T08:27:51.567Z,11.70
2023-04-15T08:30:20.379Z,11.80
2023-04-15T08:32:52.411Z,11.60
2023-04-15T08:35:20.713Z,11.70
2023-04-15T08:37:50.210Z,11.70
2023-04-15T08:40:18.401Z,11.70
2023-04-15T08:42:50.914Z,11.70
2023-04-15T08:45:20.301Z,11.80
2023-04-15T08:47:59.305Z,11.80
2023-04-15T08:50:30.648Z,11.90
2023-04-15T08:53:00.506Z,12.00
2023-04-15T08:55:31.633Z,12.10
2023-04-15T08:57:59.721Z,12.00
2023-04-15T09:00:29.230Z,12.10
2023-04-15T09:02:58.161Z,12.10
2023-04-15T09:05:26.689Z,12.30
2023-04-15T09:07:54.903Z,12.40
2023-04-15T09:10:26.357Z,12.40
2023-04-15T09:12:54.424Z,12.50
2023-04-15T09:15:23.777Z,12.70
2023-04-15T09:17:52.233Z,12.60
2023-04-15T09:20:20.520Z,12.60
2023-04-15T09:22:50.772Z,12.70
2023-04-15T09:25:32.137Z,12.80
2023-04-15T09:28:05.151Z,12.80
2023-04-15T09:30:33.120Z,12.90
2023-04-15T09:33:05.091Z,13.00
2023-04-15T09:35:33.308Z,13.20
2023-04-15T09:38:08.552Z,13.20
2023-04-15T09:40:40.342Z,13.20
2023-04-15T09:43:09.461Z,13.40
2023-04-15T09:45:38.270Z,13.50
2023-04-15T09:48:18.284Z,13.50
2023-04-15T09:50:53.780Z,13.50
2023-04-15T09:53:24.851Z,13.60
2023-04-15T09:55:56.905Z,13.70
2023-04-15T09:58:26.489Z,13.70
2023-04-15T10:00:56.874Z,13.70
2023-04-15T10:03:26.655Z,13.80
2023-04-15T10:05:56.917Z,13.90
2023-04-15T10:08:26.409Z,14.00
2023-04-15T10:10:56.689Z,14.10
2023-04-15T10:13:36.261Z,14.00
2023-04-15T10:16:08.717Z,14.10
2023-04-15T10:18:39.228Z,14.20
2023-04-15T10:21:08.170Z,14.40
2023-04-15T10:23:36.846Z,14.60
2023-04-15T10:26:07.095Z,14.70
2023-04-15T10:28:35.905Z,14.70
2023-04-15T10:31:06.000Z,14.80
2023-04-15T10:33:34.799Z,14.80
2023-04-15T10:36:03.848Z,14.80
2023-04-15T10:38:37.323Z,14.80
2023-04-15T10:41:21.555Z,14.80
2023-04-15T10:43:55.019Z,14.80
2023-04-15T10:46:25.700Z,15.10
2023-04-15T10:48:55.536Z,15.00
2023-04-15T10:51:33.279Z,15.10
2023-04-15T10:54:02.146Z,15.10
2023-04-15T10:56:43.179Z,15.10
2023-04-15T10:59:11.334Z,15.20
2023-04-15T11:01:52.922Z,15.40
2023-04-15T11:04:52.738Z,15.00
2023-04-15T11:07:41.381Z,15.10
2023-04-15T11:10:51.315Z,15.30
2023-04-15T11:13:23.726Z,15.50
2023-04-15T11:15:52.028Z,15.60
2023-04-15T11:18:22.223Z,15.70
2023-04-15T11:20:56.572Z,15.70
2023-04-15T11:23:30.600Z,15.60
2023-04-15T11:26:00.583Z,15.50
2023-04-15T11:28:31.017Z,15.60
2023-04-15T11:30:59.978Z,15.80
2023-04-15T11:33:27.914Z,15.90
2023-04-15T11:35:58.503Z,15.90
2023-04-15T11:38:26.444Z,15.90
2023-04-15T11:40:54.686Z,16.00
2023-04-15T11:43:25.141Z,16.20
2023-04-15T11:45:57.905Z,16.10
2023-04-15T11:48:27.918Z,16.00
2023-04-15T11:50:58.137Z,16.00
2023-04-15T11:53:37.146Z,16.10
2023-04-15T11:56:05.854Z,16.20
2023-04-15T11:58:36.497Z,16.10
2023-04-15T12:01:07.403Z,16.30
2023-04-15T12:03:40.565Z,16.30
2023-04-15T12:06:19.129Z,16.40
2023-04-15T12:09:01.860Z,16.20
2023-04-15T12:11:35.290Z,16.10
2023-04-15T12:14:11.185Z,16.10
2023-04-15T12:16:49.104Z,16.10
2023-04-15T12:19:24.492Z,16.00
2023-04-15T12:21:53.645Z,15.90
2023-04-15T12:24:23.962Z,15.90
2023-04-15T12:26:56.170Z,15.80
2023-04-15T12:29:27.871Z,15.60
2023-04-15T12:31:58.493Z,15.40
2023-04-15T12:34:33.664Z,15.40
2023-04-15T12:37:14.463Z,15.30
2023-04-15T12:39:44.977Z,15.20
2023-04-15T12:42:13.805Z,15.20
2023-04-15T12:44:41.856Z,15.10
2023-04-15T12:47:12.678Z,15.10
2023-04-15T12:49:41.396Z,15.00
2023-04-15T12:52:09.720Z,15.00
2023-04-15T12:54:38.123Z,14.90
2023-04-15T12:57:09.044Z,14.70
2023-04-15T12:59:37.659Z,14.80
2023-04-15T13:02:06.380Z,15.10
2023-04-15T13:04:36.115Z,15.00
2023-04-15T13:07:13.844Z,15.10
2023-04-15T13:09:50.922Z,14.90
2023-04-15T13:12:19.359Z,14.90
2023-04-15T13:14:55.675Z,14.90
2023-04-15T13:17:27.794Z,14.80
2023-04-15T13:19:58.365Z,15.00
2023-04-15T13:22:27.242Z,14.70
2023-04-15T13:24:58.766Z,14.80
2023-04-15T13:27:28.325Z,14.70
2023-04-15T13:29:57.753Z,14.70
2023-04-15T13:32:26.248Z,14.80
2023-04-15T13:35:04.569Z,14.60
2023-04-15T13:37:32.866Z,14.50
2023-04-15T13:40:04.021Z,14.60
2023-04-15T13:42:32.235Z,14.60
2023-04-15T13:45:17.249Z,14.60
2023-04-15T13:47:45.697Z,14.60
2023-04-15T13:50:16.254Z,14.50
2023-04-15T13:52:44.590Z,14.50
2023-04-15T13:55:18.713Z,14.50
2023-04-15T13:57:48.262Z,14.60
2023-04-15T14:00:17.471Z,14.50
2023-04-15T14:02:46.076Z,14.50
2023-04-15T14:05:16.377Z,14.50
2023-04-15T14:07:44.880Z,14.50
2023-04-15T14:10:13.205Z,14.40
2023-04-15T14:12:43.005Z,14.60
2023-04-15T14:15:11.860Z,14.40
2023-04-15T14:17:42.519Z,14.40
2023-04-15T14:20:11.617Z,14.40
2023-04-15T14:22:42.677Z,14.30
2023-04-15T14:25:17.194Z,14.20
2023-04-15T14:27:45.712Z,14.20
2023-04-15T14:30:14.592Z,14.20
2023-04-15T14:32:43.093Z,14.20
2023-04-15T14:35:11.176Z,14.20
2023-04-15T14:37:45.370Z,14.30
2023-04-15T14:40:13.681Z,14.30
2023-04-15T14:42:48.692Z,14.30
2023-04-15T14:45:17.680Z,14.20
2023-04-15T14:47:46.119Z,14.40
2023-04-15T14:50:14.587Z,14.20
2023-04-15T14:52:44.126Z,14.00
2023-04-15T14:55:13.486Z,14.00
2023-04-15T14:57:42.777Z,13.90
2023-04-15T15:00:15.851Z,14.00
2023-04-15T15:02:44.830Z,13.90
2023-04-15T15:05:13.164Z,14.10
2023-04-15T15:07:45.701Z,13.90
2023-04-15T15:10:13.762Z,13.80
2023-04-15T15:12:42.041Z,13.90
2023-04-15T15:15:24.945Z,13.90
2023-04-15T15:17:57.192Z,13.80
2023-04-15T15:20:28.885Z,13.80
2023-04-15T15:22:58.638Z,13.60
2023-04-15T15:25:26.805Z,13.60
2023-04-15T15:27:55.198Z,13.60
2023-04-15T15:30:23.675Z,13.70
2023-04-15T15:32:51.860Z,13.60
2023-04-15T15:35:20.142Z,13.60
2023-04-15T15:37:48.583Z,13.60
2023-04-15T15:40:18.114Z,13.60
2023-04-15T15:42:47.251Z,13.60
2023-04-15T15:45:15.490Z,13.80
2023-04-15T15:47:44.179Z,13.80
2023-04-15T15:50:14.234Z,13.70
2023-04-15T15:52:42.717Z,13.60
2023-04-15T15:55:11.306Z,13.60
2023-04-15T15:57:40.956Z,13.60
2023-04-15T16:00:12.942Z,13.70
2023-04-15T16:05:13.216Z,13.70
2023-04-15T16:07:42.976Z,13.60
2023-04-15T16:10:13.805Z,13.40
2023-04-15T16:12:43.428Z,13.30
2023-04-15T16:15:13.826Z,13.40
2023-04-15T16:17:45.191Z,13.40
2023-04-15T16:20:13.314Z,13.50
2023-04-15T16:22:42.341Z,13.40
2023-04-15T16:25:10.976Z,13.30
2023-04-15T16:30:13.879Z,13.10
2023-04-15T16:32:42.065Z,13.30
2023-04-15T16:35:14.461Z,13.40
2023-04-15T16:37:45.434Z,13.20
2023-04-15T16:40:14.404Z,13.10
2023-04-15T16:42:43.820Z,13.00
2023-04-15T16:45:13.564Z,12.90
2023-04-15T16:47:44.060Z,12.70
2023-04-15T16:50:12.788Z,12.70
2023-04-15T16:52:41.108Z,12.70
2023-04-15T16:55:09.737Z,12.60
2023-04-15T16:58:02.772Z,12.70
2023-04-15T17:00:36.832Z,12.70
2023-04-15T17:03:13.792Z,12.60
2023-04-15T17:05:47.046Z,12.50
2023-04-15T17:08:18.369Z,12.50
2023-04-15T17:10:49.152Z,12.40
2023-04-15T17:13:22.538Z,12.40
2023-04-15T17:16:02.038Z,12.10
2023-04-15T17:18:30.493Z,12.10
2023-04-15T17:20:58.694Z,11.90
2023-04-15T17:23:28.203Z,11.70
2023-04-15T17:25:58.482Z,11.60
2023-04-15T17:28:28.047Z,11.70
2023-04-15T17:30:59.028Z,11.50
2023-04-15T17:34:01.211Z,11.40
2023-04-15T17:36:32.981Z,11.40
2023-04-15T17:39:06.698Z,11.20
2023-04-15T17:41:35.147Z,11.20
2023-04-15T17:44:04.135Z,11.00
2023-04-15T17:46:34.133Z,10.80
2023-04-15T17:49:03.423Z,10.60
2023-04-15T17:51:35.282Z,10.30
2023-04-15T17:54:04.075Z,10.20
2023-04-15T17:56:32.707Z,10.20
2023-04-15T17:59:02.529Z,10.10
2023-04-15T18:01:31.092Z,10.00
2023-04-15T18:04:00.938Z,10.00
2023-04-15T18:06:29.268Z,10.00
2023-04-15T18:08:58.304Z,9.90
2023-04-15T18:11:26.642Z,9.90
2023-04-15T18:13:55.339Z,9.90
2023-04-15T18:16:23.879Z,9.90
2023-04-15T18:18:52.511Z,9.90
2023-04-15T18:21:25.189Z,9.80
2023-04-15T18:23:55.771Z,9.80
2023-04-15T18:26:23.889Z,9.80
2023-04-15T18:28:52.133Z,9.90
2023-04-15T18:31:20.885Z,9.80
2023-04-15T18:33:50.763Z,9.80
2023-04-15T18:36:23.151Z,9.90
2023-04-15T18:38:52.691Z,9.80
2023-04-15T18:41:26.646Z,9.90
2023-04-15T18:43:58.827Z,9.90
2023-04-15T18:46:28.363Z,9.90
2023-04-15T18:48:56.981Z,10.10
2023-04-15T18:51:26.069Z,9.90
2023-04-15T18:53:55.789Z,9.80
2023-04-15T18:56:23.999Z,9.90
2023-04-15T18:59:11.594Z,9.80
2023-04-15T19:01:43.131Z,9.80
2023-04-15T19:04:11.714Z,9.90
2023-04-15T19:06:39.906Z,9.70
2023-04-15T19:09:10.204Z,9.60
2023-04-15T19:11:38.655Z,9.50
2023-04-15T19:14:08.142Z,9.40
2023-04-15T19:16:36.439Z,9.50
2023-04-15T19:19:06.832Z,9.30
2023-04-15T19:21:35.453Z,9.30
2023-04-15T19:24:03.852Z,9.10
2023-04-15T19:26:36.092Z,9.20
2023-04-15T19:29:04.548Z,9.10
2023-04-15T19:31:33.256Z,9.20
2023-04-15T19:34:01.581Z,9.10
2023-04-15T19:36:29.737Z,9.10
2023-04-15T19:38:58.178Z,9.10
2023-04-15T19:41:26.499Z,9.10
2023-04-15T19:43:56.620Z,9.10
2023-04-15T19:46:28.024Z,9.10
2023-04-15T19:48:56.942Z,9.00
2023-04-15T19:51:29.498Z,9.00
2023-04-15T19:53:59.710Z,9.00
2023-04-15T19:56:27.854Z,9.10
2023-04-15T19:59:00.116Z,9.10
2023-04-15T20:01:29.107Z,9.10
2023-04-15T20:03:57.380Z,9.10
2023-04-15T20:06:27.453Z,9.20
2023-04-15T20:08:55.824Z,9.10
2023-04-15T20:12:46.059Z,9.10
2023-04-15T20:14:18.940Z,9.10
2023-04-15T20:16:47.821Z,9.10
2023-04-15T20:19:18.024Z,9.10
2023-04-15T20:21:46.397Z,9.10
2023-04-15T20:24:16.705Z,9.20
2023-04-15T20:26:45.144Z,9.20
2023-04-15T20:29:13.671Z,9.30
2023-04-15T20:31:43.681Z,9.30
2023-04-15T20:34:14.367Z,9.30
2023-04-15T20:36:44.853Z,9.40
2023-04-15T20:39:13.106Z,9.40
2023-04-15T20:41:41.395Z,9.40
2023-04-15T20:44:10.900Z,9.40
2023-04-15T20:46:39.088Z,9.40
2023-04-15T20:49:08.956Z,9.30
2023-04-15T20:51:37.991Z,9.40
2023-04-15T20:54:06.279Z,9.40
2023-04-15T20:56:34.700Z,9.30
2023-04-15T20:59:03.059Z,9.30
2023-04-15T21:01:31.555Z,9.30
2023-04-15T21:04:01.598Z,9.30
2023-04-15T21:06:31.239Z,9.40
2023-04-15T21:08:59.267Z,9.20
2023-04-15T21:11:46.454Z,9.20
2023-04-15T21:14:15.618Z,9.30
2023-04-15T21:16:44.508Z,9.20
2023-04-15T21:19:12.781Z,9.30
2023-04-15T21:21:45.093Z,9.50
2023-04-15T21:24:13.269Z,9.30
2023-04-15T21:26:41.526Z,9.30
2023-04-15T21:29:11.905Z,9.30
2023-04-15T21:31:41.449Z,9.30
2023-04-15T21:34:10.031Z,9.30
2023-04-15T21:36:38.546Z,9.30
2023-04-15T21:39:08.369Z,9.40
2023-04-15T21:41:40.503Z,9.30
2023-04-15T21:44:08.509Z,9.40
2023-04-15T21:46:36.596Z,9.30
2023-04-15T21:49:06.869Z,9.40
2023-04-15T21:51:37.749Z,9.40
2023-04-15T21:54:07.558Z,9.30
2023-04-15T21:56:36.897Z,9.40
2023-04-15T21:59:05.275Z,9.40
2023-04-15T22:01:33.595Z,9.30
2023-04-15T22:04:02.026Z,9.30
2023-04-15T22:06:31.882Z,9.40
2023-04-15T22:09:02.442Z,9.30
2023-04-15T22:11:32.538Z,9.40
2023-04-15T22:14:02.011Z,9.40
2023-04-15T22:16:30.220Z,9.40
2023-04-15T22:18:58.194Z,9.40
2023-04-15T22:21:26.758Z,9.30
2023-04-15T22:24:32.091Z,9.30
2023-04-15T22:26:44.965Z,9.40
2023-04-15T22:29:16.112Z,9.40
2023-04-15T22:31:44.477Z,9.40
2023-04-15T22:34:14.886Z,9.50
2023-04-15T22:36:43.094Z,9.60
2023-04-15T22:39:11.213Z,9.60
2023-04-15T22:41:43.163Z,9.40
2023-04-15T22:44:13.196Z,9.60
2023-04-15T22:46:44.485Z,9.60
2023-04-15T22:49:12.616Z,9.60
2023-04-15T22:51:42.500Z,9.60
2023-04-15T22:54:10.961Z,9.60
2023-04-15T22:56:39.305Z,9.60
2023-04-15T22:59:08.665Z,9.70
2023-04-15T23:01:39.079Z,9.50
2023-04-15T23:04:22.858Z,9.70
2023-04-15T23:06:54.101Z,9.70
2023-04-15T23:09:22.576Z,9.80
2023-04-15T23:11:53.849Z,9.80
2023-04-15T23:14:21.949Z,9.80
2023-04-15T23:16:51.528Z,9.80
2023-04-15T23:19:19.550Z,9.80
2023-04-15T23:21:47.887Z,9.70
2023-04-15T23:24:15.979Z,9.70
2023-04-15T23:26:44.331Z,9.80
2023-04-15T23:29:12.405Z,9.80
2023-04-15T23:31:41.731Z,9.70
2023-04-15T23:34:11.423Z,9.80
2023-04-15T23:36:43.093Z,9.80
2023-04-15T23:39:11.405Z,9.80
2023-04-15T23:41:39.781Z,9.70
2023-04-15T23:44:08.299Z,9.90
2023-04-15T23:46:38.117Z,9.80
2023-04-15T23:49:06.227Z,9.80
2023-04-15T23:51:35.777Z,9.80
2023-04-15T23:54:04.169Z,9.70
2023-04-15T23:56:32.580Z,9.70
2023-04-15T23:59:00.770Z,9.60
